Time;durP1;ratioP1;P1;durP2;ratioP2;P2;SDS_P1;SDS_P2;PMS_P1;PMS_P2;Temp;Humidity;BMP_temperature;BMP_pressure;BME280_temperature;BME280_humidity;BME280_pressure;Samples;Min_cycle;Max_cycle;Signal;HPM_P1;HPM_P2
2023/01/28 00:02:13;;;;;;;10.23;6.37;;;-3.20;99.90;-2.90;94233.00;;;;7403214;19;20137;-79
2023/01/28 00:04:39;;;;;;;10.83;6.63;;;-3.10;99.90;-2.80;94259.00;;;;7404913;19;20161;-77
2023/01/28 00:07:20;;;;;;;9.83;6.23;;;-3.10;99.90;-2.90;94233.00;;;;7404160;19;20203;-77
2023/01/28 00:09:47;;;;;;;9.30;6.30;;;-3.10;99.90;-2.80;94279.00;;;;7404488;19;20152;-78
2023/01/28 00:12:20;;;;;;;11.13;7.40;;;-3.10;99.90;-2.90;94296.00;;;;7404321;19;20926;-79
2023/01/28 00:14:47;;;;;;;10.40;6.70;;;-3.20;99.90;-2.90;94262.00;;;;7403418;19;20141;-77
2023/01/28 00:17:20;;;;;;;9.93;6.47;;;-3.20;99.90;-2.90;94239.00;;;;7403251;19;20235;-78
2023/01/28 00:19:47;;;;;;;10.53;6.80;;;-3.20;99.90;-2.80;94276.00;;;;7402177;19;20151;-79
2023/01/28 00:22:21;;;;;;;10.93;6.87;;;-3.20;99.90;-2.80;94228.00;;;;7404589;19;20154;-77
2023/01/28 00:24:48;;;;;;;11.30;6.90;;;-3.20;99.90;-2.90;94235.00;;;;7403601;19;20133;-77
2023/01/28 00:27:24;;;;;;;9.53;6.63;;;-3.20;99.90;-2.80;94294.00;;;;7403815;19;20145;-78
2023/01/28 00:29:57;;;;;;;11.90;7.10;;;-3.20;99.90;-2.90;94288.00;;;;7404517;19;20125;-78
2023/01/28 00:32:24;;;;;;;10.73;6.83;;;-3.10;99.90;-2.90;94270.00;;;;7402465;19;20150;-79
2023/01/28 00:34:57;;;;;;;9.17;6.23;;;-3.20;99.90;-2.80;94280.00;;;;7402982;19;20125;-77
2023/01/28 00:37:30;;;;;;;10.93;6.60;;;-3.10;99.90;-2.80;94270.00;;;;7403986;19;20148;-77
2023/01/28 00:40:05;;;;;;;11.43;6.57;;;-3.20;99.90;-2.80;94294.00;;;;7401354;19;20145;-78
2023/01/28 00:42:38;;;;;;;10.30;6.10;;;-3.10;99.90;-2.80;94283.00;;;;7404033;19;20132;-77
2023/01/28 00:45:11;;;;;;;9.67;6.40;;;-3.20;99.90;-2.80;94255.00;;;;7402660;19;20152;-79
2023/01/28 00:47:39;;;;;;;11.57;6.33;;;-3.10;99.90;-2.80;94241.00;;;;7403231;19;20128;-79
2023/01/28 00:50:13;;;;;;;9.53;6.07;;;-3.10;99.90;-2.80;94259.00;;;;7403970;19;20595;-79
2023/01/28 00:52:47;;;;;;;10.63;6.20;;;-3.10;99.90;-2.80;94240.00;;;;7393217;19;20144;-79
2023/01/28 00:55:14;;;;;;;10.67;6.50;;;-3.10;99.90;-2.80;94290.00;;;;7396807;19;20214;-77
2023/01/28 00:57:48;;;;;;;10.93;6.37;;;-3.10;99.90;-2.70;94247.00;;;;7401744;19;20125;-78
2023/01/28 01:00:26;;;;;;;11.50;6.70;;;-3.10;99.90;-2.70;94256.00;;;;7400340;19;20175;-78
2023/01/28 01:02:53;;;;;;;8.93;6.13;;;-3.20;99.90;-2.70;94292.00;;;;7400286;19;20145;-79
2023/01/28 01:05:33;;;;;;;13.13;6.90;;;-3.20;99.90;-2.70;94231.00;;;;7398059;19;20155;-78
2023/01/28 01:08:00;;;;;;;10.57;6.40;;;-3.10;99.90;-2.70;94291.00;;;;7397747;19;20140;-77
2023/01/28 01:10:38;;;;;;;8.83;5.70;;;-3.20;99.90;-2.80;94228.00;;;;7398688;19;20180;-77
2023/01/28 01:13:06;;;;;;;10.20;6.50;;;-3.20;99.90;-2.80;94286.00;;;;7401187;19;20207;-79
2023/01/28 01:15:39;;;;;;;8.87;6.30;;;-3.20;99.90;-2.70;94257.00;;;;7399301;19;20128;-79
2023/01/28 01:18:06;;;;;;;11.63;5.47;;;-3.20;99.90;-2.70;94270.00;;;;7397354;19;20200;-78
2023/01/28 01:20:44;;;;;;;10.60;6.10;;;-3.10;99.90;-2.70;94248.00;;;;7398958;19;20201;-78
2023/01/28 01:23:18;;;;;;;12.13;6.40;;;-3.10;99.90;-2.70;94290.00;;;;7403416;19;20154;-78
2023/01/28 01:25:52;;;;;;;9.90;5.70;;;-3.10;99.90;-2.80;94296.00;;;;7402557;19;20125;-79
2023/01/28 01:28:20;;;;;;;8.17;5.77;;;-3.20;99.90;-2.80;94302.00;;;;7402330;19;20152;-79
2023/01/28 01:31:03;;;;;;;9.77;5.83;;;-3.10;99.90;-2.70;94270.00;;;;7403483;19;20225;-77
2023/01/28 01:33:31;;;;;;;8.87;5.40;;;-3.20;99.90;-2.70;94288.00;;;;7402753;19;20161;-77
2023/01/28 01:36:05;;;;;;;10.17;6.00;;;-3.20;99.90;-2.80;94257.00;;;;7402875;19;20137;-78
2023/01/28 01:38:32;;;;;;;10.13;6.53;;;-3.20;99.90;-2.80;94308.00;;;;7400131;19;20595;-77
2023/01/28 01:41:20;;;;;;;9.93;6.20;;;-3.10;99.90;-2.80;94256.00;;;;7400908;19;20595;-77
2023/01/28 01:43:59;;;;;;;10.53;5.93;;;-3.10;99.90;-2.60;94292.00;;;;7402889;19;20156;-80
2023/01/28 01:46:50;;;;;;;9.53;5.83;;;-3.10;99.90;-2.70;94254.00;;;;7401639;19;20125;-78
2023/01/28 01:49:23;;;;;;;8.57;5.80;;;-3.10;99.90;-2.70;94275.00;;;;7400542;19;20643;-80
2023/01/28 01:52:07;;;;;;;8.40;5.07;;;-3.10;99.90;-2.70;94246.00;;;;7402542;19;20214;-78
2023/01/28 01:54:38;;;;;;;8.47;5.37;;;-3.10;99.90;-2.60;94305.00;;;;7403266;19;20477;-77
2023/01/28 01:57:17;;;;;;;9.50;5.70;;;-3.10;99.90;-2.70;94306.00;;;;7401628;19;20153;-75
2023/01/28 01:59:51;;;;;;;8.27;5.80;;;-3.10;99.90;-2.80;94277.00;;;;7399507;19;20132;-79
2023/01/28 02:02:26;;;;;;;12.27;5.80;;;-3.00;99.90;-2.70;94263.00;;;;7400984;19;20181;-78
2023/01/28 02:04:54;;;;;;;10.13;5.80;;;-3.00;99.90;-2.70;94271.00;;;;7402357;19;20148;-77
2023/01/28 02:07:35;;;;;;;11.13;6.00;;;-3.00;99.90;-2.70;94293.00;;;;7396327;19;20149;-77
2023/01/28 02:10:05;;;;;;;8.70;5.53;;;-3.00;99.90;-2.70;94274.00;;;;7399935;19;20182;-78
2023/01/28 02:12:51;;;;;;;8.97;5.47;;;-3.00;99.90;-2.60;94301.00;;;;7399723;19;20199;-77
2023/01/28 02:15:25;;;;;;;8.73;5.73;;;-3.00;99.90;-2.80;94308.00;;;;7399107;19;20139;-76
2023/01/28 02:17:52;;;;;;;8.23;5.07;;;-3.00;99.90;-2.80;94259.00;;;;7398380;19;20175;-77
2023/01/28 02:21:16;;;;;;;10.73;6.13;;;-3.00;99.90;-2.70;94304.00;;;;7396483;19;20141;-77
2023/01/28 02:24:40;;;;;;;9.33;5.73;;;-3.00;99.90;-2.70;94310.00;;;;7398715;19;20133;-77
2023/01/28 02:27:55;;;;;;;9.20;5.87;;;-3.00;99.90;-2.60;94302.00;;;;7412603;19;20139;-78
2023/01/28 02:30:37;;;;;;;8.90;5.83;;;-3.00;99.90;-2.80;94297.00;;;;7412139;19;20154;-77
2023/01/28 02:33:16;;;;;;;8.37;5.80;;;-3.00;99.90;-2.70;94265.00;;;;7418514;19;20143;-78
2023/01/28 02:35:54;;;;;;;8.70;5.20;;;-3.00;99.90;-2.70;94290.00;;;;7413437;19;20606;-77
2023/01/28 02:38:49;;;;;;;9.07;5.50;;;-3.00;99.90;-2.70;94281.00;;;;7408999;19;20121;-77
2023/01/28 02:41:37;;;;;;;9.80;5.33;;;-3.00;99.90;-2.70;94308.00;;;;7402044;19;20123;-77
2023/01/28 02:44:04;;;;;;;10.97;5.70;;;-3.00;99.90;-2.70;94313.00;;;;7402798;19;20606;-78
2023/01/28 02:49:50;;;;;;;10.60;6.23;;;-3.00;99.90;-2.70;94316.00;;;;7398857;19;20152;-77
2023/01/28 02:56:30;;;;;;;13.13;5.80;;;-3.00;99.90;-2.60;94283.00;;;;7396064;19;20602;-77
2023/01/28 02:59:31;;;;;;;8.90;5.27;;;-3.00;1.00;-2.50;94262.00;;;;7402708;19;20159;-79
2023/01/28 03:02:24;;;;;;;9.80;5.87;;;-3.00;1.00;-2.60;94314.00;;;;7398679;19;20637;-78
2023/01/28 03:05:22;;;;;;;9.33;5.47;;;-2.90;1.00;-2.50;94317.00;;;;7397745;19;20198;-78
2023/01/28 03:07:50;;;;;;;10.23;5.83;;;-2.90;1.00;-2.50;94312.00;;;;7400709;19;20502;-78
2023/01/28 03:10:27;;;;;;;10.53;6.47;;;-2.90;1.00;-2.40;94299.00;;;;7399843;19;20200;-77
2023/01/28 03:36:54;;;;;;;10.93;6.27;;;-2.70;1.00;-2.40;94335.00;;;;7406255;19;20587;-77
2023/01/28 03:39:25;;;;;;;12.77;7.93;;;-2.70;1.00;-2.50;94325.00;;;;7404001;19;20168;-77
2023/01/28 03:42:12;;;;;;;11.67;7.17;;;-2.70;1.00;-2.50;94332.00;;;;7404863;19;20167;-77
2023/01/28 03:44:52;;;;;;;21.43;8.27;;;-2.70;1.00;-2.60;94312.00;;;;7405059;19;20128;-78
2023/01/28 03:47:29;;;;;;;10.20;6.83;;;-2.70;1.00;-2.50;94339.00;;;;7404628;19;20448;-76
2023/01/28 03:49:58;;;;;;;12.53;7.07;;;-2.70;1.00;-2.50;94314.00;;;;7405162;19;20683;-76
2023/01/28 03:52:32;;;;;;;11.70;7.57;;;-2.60;1.00;-2.30;94335.00;;;;7403800;19;20220;-78
2023/01/28 03:55:00;;;;;;;21.27;8.60;;;-2.70;1.00;-2.40;94322.00;;;;7403447;19;20139;-76
2023/01/28 03:57:33;;;;;;;14.30;8.03;;;-2.70;1.00;-2.40;94305.00;;;;7404633;19;20643;-78
2023/01/28 04:00:01;;;;;;;16.23;9.20;;;-2.60;1.00;-2.50;94344.00;;;;7403582;19;20622;-77
2023/01/28 04:02:38;;;;;;;19.17;9.53;;;-2.60;1.00;-2.40;94324.00;;;;7403053;19;20172;-78
2023/01/28 04:05:24;;;;;;;21.67;8.07;;;-2.60;1.00;-2.40;94289.00;;;;7403187;19;20171;-77
2023/01/28 04:07:59;;;;;;;51.73;10.13;;;-2.50;1.00;-2.30;94321.00;;;;7401065;19;20155;-78
2023/01/28 04:10:32;;;;;;;19.13;8.27;;;-2.50;1.00;-2.40;94310.00;;;;7404316;19;20583;-78
2023/01/28 04:13:06;;;;;;;47.93;9.97;;;-2.50;1.00;-2.30;94287.00;;;;7404548;19;20457;-78
2023/01/28 04:15:42;;;;;;;58.93;10.70;;;-2.50;1.00;-2.30;94337.00;;;;7404544;19;20206;-78
2023/01/28 04:18:16;;;;;;;63.80;10.53;;;-2.50;1.00;-2.20;94332.00;;;;7403726;19;20147;-76
2023/01/28 04:20:42;;;;;;;82.97;12.00;;;-2.40;1.00;-2.20;94333.00;;;;7404500;19;20121;-76
2023/01/28 04:23:16;;;;;;;222.77;17.93;;;-2.40;1.00;-2.30;94347.00;;;;7401291;19;20516;-77
2023/01/28 04:25:50;;;;;;;28.57;9.93;;;-2.40;1.00;-2.10;94303.00;;;;7402882;19;20179;-76
2023/01/28 04:28:23;;;;;;;69.80;11.57;;;-2.40;1.00;-2.20;94350.00;;;;7403474;19;20182;-78
2023/01/28 04:30:56;;;;;;;40.60;10.13;;;-2.50;1.00;-2.20;94351.00;;;;7402219;19;20219;-78
2023/01/28 04:33:23;;;;;;;78.73;12.87;;;-2.50;1.00;-2.30;94368.00;;;;7404890;19;20133;-78
2023/01/28 04:35:57;;;;;;;149.47;14.00;;;-2.40;1.00;-2.20;94358.00;;;;7405462;19;20129;-78
2023/01/28 04:38:24;;;;;;;37.27;9.53;;;-2.40;1.00;-2.20;94318.00;;;;7405239;19;20148;-78
2023/01/28 04:40:58;;;;;;;38.63;10.70;;;-2.40;1.00;-2.20;94311.00;;;;7403155;19;20140;-76
2023/01/28 04:43:26;;;;;;;239.10;17.37;;;-2.40;1.00;-2.30;94328.00;;;;7403082;19;20153;-79
2023/01/28 04:45:59;;;;;;;88.47;12.17;;;-2.40;1.00;-2.20;94355.00;;;;7403154;19;20153;-79
2023/01/28 04:48:29;;;;;;;213.17;15.60;;;-2.40;1.00;-2.20;94355.00;;;;7405203;19;20136;-78
2023/01/28 04:51:04;;;;;;;332.30;21.67;;;-2.40;1.00;-2.30;94352.00;;;;7405066;19;20128;-76
2023/01/28 04:53:31;;;;;;;159.20;15.03;;;-2.40;1.00;-2.20;94345.00;;;;7403902;19;20156;-77
2023/01/28 04:56:05;;;;;;;126.27;14.60;;;-2.40;1.00;-2.10;94346.00;;;;7403905;19;20121;-77
2023/01/28 04:58:32;;;;;;;163.37;15.77;;;-2.40;1.00;-2.20;94370.00;;;;7405692;19;20483;-77
2023/01/28 05:01:05;;;;;;;67.73;12.23;;;-2.30;1.00;-2.00;94348.00;;;;7403119;19;20172;-77
2023/01/28 05:03:39;;;;;;;59.77;10.57;;;-2.40;1.00;-2.00;94355.00;;;;7402150;19;20165;-77
2023/01/28 05:06:12;;;;;;;31.47;9.93;;;-2.30;1.00;-2.00;94359.00;;;;7403050;19;20631;-77
2023/01/28 05:08:53;;;;;;;18.57;8.90;;;-2.30;1.00;-2.10;94362.00;;;;7405086;19;20790;-77
2023/01/28 05:11:19;;;;;;;16.73;9.23;;;-2.30;1.00;-2.00;94371.00;;;;7404394;19;20117;-76
2023/01/28 05:13:54;;;;;;;33.53;10.83;;;-2.30;2.00;-1.90;94382.00;;;;7405309;19;20137;-77
2023/01/28 05:16:28;;;;;;;23.87;9.47;;;-2.30;4.30;-2.00;94356.00;;;;7403440;19;20176;-77
2023/01/28 05:18:55;;;;;;;23.57;9.17;;;-2.20;16.20;-2.00;94352.00;;;;7403018;19;20475;-77
2023/01/28 05:21:29;;;;;;;22.13;9.03;;;-2.20;17.00;-2.00;94346.00;;;;7401248;19;20121;-76
2023/01/28 05:24:03;;;;;;;102.53;12.50;;;-2.20;14.90;-2.00;94343.00;;;;7399525;19;20144;-78
2023/01/28 05:26:30;;;;;;;65.17;11.20;;;-2.30;17.20;-2.00;94371.00;;;;7403834;19;20148;-78
2023/01/28 05:29:04;;;;;;;159.90;14.63;;;-2.30;15.50;-2.10;94377.00;;;;7405112;19;20580;-78
2023/01/28 05:31:37;;;;;;;442.77;26.80;;;-2.20;14.10;-2.10;94354.00;;;;7403081;19;20666;-77
2023/01/28 05:34:04;;;;;;;92.37;11.90;;;-2.20;9.90;-2.10;94373.00;;;;7405387;19;20534;-76
2023/01/28 05:36:40;;;;;;;135.47;13.67;;;-2.20;5.50;-2.00;94349.00;;;;7403999;19;20176;-78
2023/01/28 05:39:07;;;;;;;138.40;14.43;;;-2.30;3.40;-2.00;94372.00;;;;7405735;19;20128;-77
2023/01/28 05:41:40;;;;;;;306.90;21.00;;;-2.30;5.30;-2.10;94352.00;;;;7389870;19;20212;-76
2023/01/28 05:44:07;;;;;;;419.50;24.67;;;-2.30;10.80;-2.20;94383.00;;;;7402295;19;20144;-76
2023/01/28 05:46:44;;;;;;;157.53;15.30;;;-2.30;25.60;-2.10;94360.00;;;;7400860;19;20145;-77
2023/01/28 05:49:18;;;;;;;329.87;22.80;;;-2.30;21.20;-2.20;94397.00;;;;7403245;19;20150;-75
2023/01/28 05:51:52;;;;;;;470.90;26.07;;;-2.30;34.00;-2.10;94358.00;;;;7404210;19;20156;-78
2023/01/28 05:54:19;;;;;;;249.37;18.77;;;-2.30;26.30;-2.10;94381.00;;;;7404207;19;20145;-77
2023/01/28 05:56:46;;;;;;;293.30;19.23;;;-2.40;26.80;-2.10;94389.00;;;;7404280;19;20230;-79
2023/01/28 05:59:35;;;;;;;263.83;18.00;;;-2.40;27.00;-2.10;94334.00;;;;7403088;19;20150;-79
2023/01/28 06:02:15;;;;;;;398.77;25.27;;;-2.40;42.90;-2.10;94365.00;;;;7400840;19;20171;-77
2023/01/28 06:04:49;;;;;;;277.70;18.83;;;-2.30;47.00;-2.10;94398.00;;;;7405760;19;20200;-79
2023/01/28 06:07:29;;;;;;;167.83;15.67;;;-2.40;55.20;-2.00;94378.00;;;;7403100;19;20189;-78
2023/01/28 06:09:57;;;;;;;420.73;24.30;;;-2.30;56.40;-1.90;94379.00;;;;7405415;19;20133;-78
2023/01/28 06:12:31;;;;;;;116.50;13.97;;;-2.30;76.50;-2.00;94411.00;;;;7406780;19;20133;-79
2023/01/28 06:14:58;;;;;;;76.80;13.20;;;-2.30;88.30;-2.00;94336.00;;;;7408359;19;20144;-79
2023/01/28 06:17:32;;;;;;;18.67;10.40;;;-2.30;99.90;-1.90;94409.00;;;;7409048;19;20458;-78
2023/01/28 06:20:07;;;;;;;43.67;11.63;;;-2.20;99.90;-2.00;94374.00;;;;7408856;19;20137;-77
2023/01/28 06:22:42;;;;;;;18.83;10.87;;;-2.20;99.90;-1.90;94381.00;;;;7402975;19;20542;-78
2023/01/28 06:25:16;;;;;;;140.40;16.83;;;-2.20;99.90;-2.10;94439.00;;;;7404656;19;20143;-78
2023/01/28 06:27:44;;;;;;;24.73;11.23;;;-2.20;99.90;-2.00;94419.00;;;;7404507;19;20137;-79
2023/01/28 06:30:18;;;;;;;38.50;12.30;;;-2.30;95.50;-2.00;94435.00;;;;7406785;19;20168;-78
2023/01/28 06:32:46;;;;;;;302.40;22.77;;;-2.30;89.50;-2.10;94444.00;;;;7406026;19;20155;-79
2023/01/28 06:35:20;;;;;;;21.37;11.27;;;-2.30;95.80;-2.10;94397.00;;;;7407530;19;20171;-79
2023/01/28 06:37:48;;;;;;;17.27;8.80;;;-2.30;99.40;-2.10;94408.00;;;;7407425;19;20129;-79
2023/01/28 06:40:25;;;;;;;19.23;11.37;;;-2.30;88.70;-2.10;94450.00;;;;7408532;19;20183;-78
2023/01/28 06:42:59;;;;;;;29.00;12.83;;;-2.30;69.30;-2.10;94378.00;;;;7406038;19;20144;-79
2023/01/28 06:45:28;;;;;;;21.87;12.07;;;-2.40;53.60;-2.10;94415.00;;;;7411244;19;20145;-79
2023/01/28 06:48:03;;;;;;;17.73;10.40;;;-2.30;49.70;-2.10;94467.00;;;;7415241;19;20145;-77
2023/01/28 06:50:35;;;;;;;21.97;11.97;;;-2.40;52.70;-2.10;94437.00;;;;7413828;19;20642;-78
2023/01/28 06:53:13;;;;;;;46.27;14.63;;;-2.40;56.10;-2.10;94433.00;;;;7410634;19;20196;-80
2023/01/28 06:55:48;;;;;;;21.00;11.60;;;-2.30;65.40;-2.40;94440.00;;;;7410360;19;20144;-79
2023/01/28 06:58:23;;;;;;;20.90;12.13;;;-2.30;63.10;-2.20;94456.00;;;;7408811;19;20148;-77
2023/01/28 07:00:52;;;;;;;19.53;11.80;;;-2.30;61.30;-2.20;94454.00;;;;7402054;19;20145;-77
2023/01/28 07:03:20;;;;;;;24.13;11.83;;;-2.40;45.20;-2.20;94428.00;;;;7401847;19;20532;-79
2023/01/28 07:06:01;;;;;;;22.30;12.00;;;-2.40;41.70;-2.10;94441.00;;;;7402935;19;20530;-78
2023/01/28 07:08:49;;;;;;;23.60;12.07;;;-2.40;33.30;-2.30;94474.00;;;;7404283;19;20125;-79
2023/01/28 07:11:17;;;;;;;22.00;12.57;;;-2.40;31.50;-2.10;94468.00;;;;7408302;19;20529;-79
2023/01/28 07:13:51;;;;;;;21.20;12.73;;;-2.40;36.90;-2.10;94425.00;;;;7408010;19;20138;-79
2023/01/28 07:16:22;;;;;;;24.23;12.63;;;-2.40;44.30;-2.00;94448.00;;;;7404088;19;20136;-77
2023/01/28 07:18:57;;;;;;;28.20;13.83;;;-2.40;35.80;-2.00;94458.00;;;;7412522;19;20140;-76
2023/01/28 07:21:31;;;;;;;21.10;13.17;;;-2.40;1.00;-2.10;94437.00;;;;7406683;19;20152;-76
2023/01/28 07:24:05;;;;;;;18.70;11.20;;;-2.40;1.00;-2.10;94421.00;;;;7401898;19;20506;-74
2023/01/28 07:26:32;;;;;;;17.83;10.77;;;-2.40;56.60;-2.10;94477.00;;;;7402310;19;20168;-76
2023/01/28 07:29:08;;;;;;;21.43;11.20;;;-2.30;47.90;-2.10;94464.00;;;;7400932;19;20152;-77
2023/01/28 07:31:36;;;;;;;20.10;12.07;;;-2.40;35.20;-2.10;94476.00;;;;7400024;19;20490;-76
2023/01/28 07:34:10;;;;;;;20.67;12.23;;;-2.30;29.50;-2.00;94429.00;;;;7402058;19;20152;-76
2023/01/28 07:36:44;;;;;;;17.13;10.97;;;-2.30;26.50;-2.00;94471.00;;;;7399520;19;20133;-75
2023/01/28 07:39:18;;;;;;;18.33;11.10;;;-2.30;26.80;-2.00;94475.00;;;;7404990;19;20143;-76
2023/01/28 07:41:52;;;;;;;20.60;11.93;;;-2.30;24.40;-2.00;94467.00;;;;7399785;19;20148;-77
2023/01/28 07:44:27;;;;;;;21.10;12.60;;;-2.30;23.00;-1.90;94460.00;;;;7402765;19;20264;-76
2023/01/28 07:47:04;;;;;;;27.37;12.70;;;-2.30;1.00;-2.00;94480.00;;;;7398684;19;20191;-76
2023/01/28 07:49:41;;;;;;;22.07;11.80;;;-2.30;17.70;-2.00;94443.00;;;;7402470;19;20142;-76
2023/01/28 07:52:15;;;;;;;22.33;12.07;;;-2.30;1.00;-2.10;94483.00;;;;7399843;19;20148;-76
2023/01/28 07:54:43;;;;;;;27.50;13.57;;;-2.20;21.10;-1.90;94456.00;;;;7399966;19;20153;-76
2023/01/28 07:57:22;;;;;;;22.57;12.37;;;-2.20;18.50;-1.80;94442.00;;;;7399241;19;20535;-75
2023/01/28 07:59:56;;;;;;;20.77;12.77;;;-2.20;25.40;-1.80;94484.00;;;;7398863;19;20607;-76
2023/01/28 08:02:24;;;;;;;42.97;15.30;;;-2.20;1.00;-1.80;94473.00;;;;7397384;19;20165;-76
2023/01/28 08:05:00;;;;;;;367.77;27.93;;;-2.20;24.80;-1.90;94481.00;;;;7399373;19;20148;-76
2023/01/28 08:07:37;;;;;;;118.93;18.23;;;-2.20;33.90;-2.00;94490.00;;;;7395710;19;20169;-75
2023/01/28 08:10:12;;;;;;;119.17;17.30;;;-2.20;40.70;-1.80;94504.00;;;;7397723;19;20152;-76
2023/01/28 08:12:57;;;;;;;24.87;13.60;;;-2.10;19.80;-1.80;94489.00;;;;7398714;19;20148;-76
2023/01/28 08:15:25;;;;;;;29.73;13.17;;;-2.10;21.10;-1.80;94474.00;;;;7395946;19;20145;-77
2023/01/28 08:18:02;;;;;;;58.33;15.47;;;-2.10;21.80;-1.80;94505.00;;;;7400800;19;20131;-75
2023/01/28 08:20:38;;;;;;;43.67;14.30;;;-2.10;16.50;-1.80;94514.00;;;;7407120;19;20168;-76
2023/01/28 08:23:19;;;;;;;26.57;14.13;;;-2.10;8.20;-1.70;94476.00;;;;7398236;19;20208;-76
2023/01/28 08:25:56;;;;;;;24.40;13.50;;;-2.10;1.00;-1.90;94496.00;;;;7408640;19;20149;-77
2023/01/28 08:28:31;;;;;;;24.53;13.13;;;-2.00;7.30;-1.80;94508.00;;;;7410185;19;20231;-76
2023/01/28 08:31:02;;;;;;;24.17;12.57;;;-2.00;1.00;-1.80;94513.00;;;;7410595;19;20214;-76
2023/01/28 08:33:37;;;;;;;42.10;15.30;;;-2.00;1.00;-1.80;94505.00;;;;7408931;19;20171;-76
2023/01/28 08:36:12;;;;;;;23.73;13.33;;;-2.00;1.00;-1.90;94516.00;;;;7414475;19;20131;-76
2023/01/28 08:38:41;;;;;;;24.87;14.07;;;-2.00;1.00;-1.80;94517.00;;;;7416131;19;20462;-76
2023/01/28 08:41:15;;;;;;;25.63;14.47;;;-2.00;1.00;-1.70;94513.00;;;;7411724;19;20144;-77
2023/01/28 08:43:49;;;;;;;28.03;15.47;;;-2.00;1.00;-1.60;94488.00;;;;7415526;19;20132;-76
2023/01/28 08:46:23;;;;;;;27.70;15.60;;;-1.90;1.00;-1.60;94507.00;;;;7414175;19;20141;-75
2023/01/28 08:48:51;;;;;;;26.93;14.07;;;-1.90;1.00;-1.40;94502.00;;;;7408861;19;20164;-77
2023/01/28 08:51:27;;;;;;;24.20;13.97;;;-1.90;1.00;-1.40;94483.00;;;;7410531;19;20140;-77
2023/01/28 08:54:01;;;;;;;24.50;14.97;;;-1.90;1.00;-1.30;94517.00;;;;7405438;19;20156;-76
2023/01/28 08:56:36;;;;;;;23.23;13.63;;;-1.80;1.00;-1.50;94488.00;;;;7406427;19;20163;-75
2023/01/28 08:59:03;;;;;;;27.20;13.73;;;-1.80;1.00;-1.30;94501.00;;;;7405874;19;20148;-76
2023/01/28 09:01:38;;;;;;;25.03;13.40;;;-1.70;1.00;-1.40;94517.00;;;;7405721;19;20467;-76
2023/01/28 09:04:12;;;;;;;31.73;17.53;;;-1.70;1.00;-1.30;94525.00;;;;7409444;19;20144;-75
2023/01/28 09:06:53;;;;;;;29.53;15.77;;;-1.70;1.00;-1.20;94523.00;;;;7411271;19;20168;-75
2023/01/28 09:09:29;;;;;;;25.77;14.70;;;-1.60;99.90;-1.40;94516.00;;;;7416093;19;20163;-76
2023/01/28 09:11:56;;;;;;;21.60;13.37;;;-1.60;99.90;-1.00;94523.00;;;;7414336;19;20137;-77
2023/01/28 09:14:31;;;;;;;21.17;11.47;;;-1.50;99.90;-1.10;94485.00;;;;7411604;19;20140;-76
2023/01/28 09:17:05;;;;;;;21.23;13.57;;;-1.50;99.90;-1.10;94486.00;;;;7413440;19;20148;-77
2023/01/28 09:19:33;;;;;;;22.50;13.17;;;-1.50;99.90;-1.10;94515.00;;;;7414376;19;20141;-78
2023/01/28 09:22:07;;;;;;;25.50;13.00;;;-1.50;99.90;-1.20;94514.00;;;;7412477;19;20152;-77
2023/01/28 09:24:34;;;;;;;19.40;11.97;;;-1.50;99.90;-1.20;94542.00;;;;7409613;19;20164;-76
2023/01/28 09:27:09;;;;;;;19.33;11.67;;;-1.50;99.90;-1.30;94538.00;;;;7406439;19;20132;-77
2023/01/28 09:29:37;;;;;;;24.13;13.87;;;-1.60;99.90;-1.30;94547.00;;;;7408993;19;20132;-76
2023/01/28 09:32:11;;;;;;;29.90;15.00;;;-1.60;99.90;-1.20;94535.00;;;;7407349;19;20143;-75
2023/01/28 09:34:45;;;;;;;48.73;24.17;;;-1.60;99.90;-1.20;94517.00;;;;7406946;19;20591;-77
2023/01/28 09:37:13;;;;;;;48.87;23.03;;;-1.60;99.90;-1.30;94547.00;;;;7405760;19;20133;-75
2023/01/28 09:39:47;;;;;;;45.30;21.57;;;-1.60;99.90;-1.30;94552.00;;;;7407868;19;20137;-77
2023/01/28 09:42:45;;;;;;;31.73;17.13;;;-1.50;99.90;-1.20;94563.00;;;;7404174;19;20144;-76
2023/01/28 09:45:48;;;;;;;36.30;19.13;;;-1.50;99.90;-1.50;94524.00;;;;7405122;19;20125;-76
2023/01/28 09:48:23;;;;;;;40.93;22.03;;;-1.50;99.90;-1.30;94565.00;;;;7405413;19;20137;-76
2023/01/28 09:50:59;;;;;;;38.43;19.10;;;-1.50;99.90;-1.30;94570.00;;;;7405145;19;20153;-79
2023/01/28 09:53:42;;;;;;;35.80;17.80;;;-1.50;99.90;-1.20;94561.00;;;;7405379;19;20145;-76
2023/01/28 09:56:31;;;;;;;26.00;13.87;;;-1.50;99.90;-1.20;94567.00;;;;7406208;19;20129;-76
2023/01/28 09:59:25;;;;;;;22.97;12.37;;;-1.50;99.90;-1.00;94565.00;;;;7404783;19;20141;-76
2023/01/28 10:02:43;;;;;;;26.37;14.90;;;-1.50;99.90;-1.10;94563.00;;;;7403975;19;20167;-75
2023/01/28 10:05:29;;;;;;;27.23;15.07;;;-1.50;49.20;-1.00;94573.00;;;;7405189;19;20740;-77
2023/01/28 10:08:39;;;;;;;26.00;15.40;;;-1.40;1.00;-0.90;94561.00;;;;7405895;19;20135;-76
2023/01/28 10:11:30;;;;;;;25.63;14.23;;;-1.40;1.00;-0.80;94562.00;;;;7404220;19;20200;-76
2023/01/28 10:14:33;;;;;;;25.23;14.23;;;-1.30;36.50;-0.80;94562.00;;;;7404508;19;20137;-76
2023/01/28 10:17:21;;;;;;;23.83;14.27;;;-1.30;1.00;-0.60;94557.00;;;;7401762;19;20486;-76
2023/01/28 10:20:04;;;;;;;25.43;13.90;;;-1.20;1.00;-0.70;94527.00;;;;7403347;19;20619;-76
2023/01/28 10:22:48;;;;;;;23.87;13.10;;;-1.20;1.00;-0.80;94531.00;;;;7400020;19;20607;-76
2023/01/28 10:25:25;;;;;;;22.87;14.17;;;-1.10;1.00;-0.60;94537.00;;;;7404596;19;20137;-76
2023/01/28 10:28:01;;;;;;;24.00;14.30;;;-1.10;1.00;-0.30;94543.00;;;;7403188;19;20618;-76
2023/01/28 10:30:41;;;;;;;23.60;13.70;;;-1.00;1.00;-0.20;94503.00;;;;7402474;19;20133;-76
2023/01/28 10:33:23;;;;;;;22.93;13.90;;;-0.80;1.00;-0.40;94539.00;;;;7403996;19;20164;-76
2023/01/28 10:35:59;;;;;;;24.20;14.07;;;-0.80;1.00;-0.20;94523.00;;;;7405200;19;20129;-76
2023/01/28 10:38:34;;;;;;;22.77;12.90;;;-0.70;1.00;-0.40;94537.00;;;;7405011;19;20129;-76
2023/01/28 10:41:04;;;;;;;19.90;12.37;;;-0.70;99.90;-0.40;94531.00;;;;7403789;19;20128;-76
2023/01/28 10:43:41;;;;;;;17.50;11.30;;;-0.70;99.90;-0.30;94520.00;;;;7400930;19;20141;-76
2023/01/28 10:46:33;;;;;;;19.33;12.57;;;-0.70;99.90;-0.30;94537.00;;;;7402876;19;20149;-75
2023/01/28 10:49:20;;;;;;;18.23;11.53;;;-0.70;99.90;-0.50;94546.00;;;;7402538;19;20160;-76
2023/01/28 10:51:48;;;;;;;20.93;11.40;;;-0.80;99.90;-0.70;94509.00;;;;7402781;19;20146;-76
2023/01/28 10:54:27;;;;;;;16.33;10.97;;;-0.80;99.90;-0.50;94534.00;;;;7401644;19;20175;-76
2023/01/28 10:57:04;;;;;;;18.90;10.83;;;-0.90;99.90;-0.50;94552.00;;;;7401240;19;20188;-75
2023/01/28 10:59:41;;;;;;;19.73;11.63;;;-0.80;99.90;-0.60;94508.00;;;;7399511;19;20148;-76
2023/01/28 11:02:34;;;;;;;19.53;12.53;;;-0.90;99.90;-0.60;94531.00;;;;7399457;19;20680;-75
2023/01/28 11:05:19;;;;;;;16.83;10.83;;;-0.90;99.90;-0.50;94555.00;;;;7398911;19;20189;-75
2023/01/28 11:08:14;;;;;;;19.57;12.30;;;-0.90;99.90;-0.40;94547.00;;;;7398139;19;20156;-75
2023/01/28 11:10:49;;;;;;;17.00;11.17;;;-0.90;99.90;-0.50;94558.00;;;;7398294;19;20157;-75
2023/01/28 11:13:28;;;;;;;20.30;12.47;;;-0.80;99.90;-0.60;94557.00;;;;7397649;19;20134;-74
2023/01/28 11:16:16;;;;;;;18.53;11.47;;;-0.90;99.90;-0.80;94503.00;;;;7397376;19;20607;-74
2023/01/28 11:18:52;;;;;;;17.40;10.40;;;-1.00;99.90;-1.00;94554.00;;;;7396234;19;20133;-75
2023/01/28 11:21:31;;;;;;;18.93;11.80;;;-1.00;99.90;-0.90;94559.00;;;;7401472;19;20137;-75
2023/01/28 11:24:13;;;;;;;23.63;13.90;;;-1.10;99.90;-1.00;94536.00;;;;7394713;19;20462;-75
2023/01/28 11:26:51;;;;;;;17.37;11.70;;;-1.10;1.00;-0.80;94510.00;;;;7398728;19;20132;-74
2023/01/28 11:29:31;;;;;;;16.63;11.13;;;-1.10;1.00;-0.70;94559.00;;;;7398671;19;20145;-76
2023/01/28 11:32:16;;;;;;;20.73;11.93;;;-1.10;1.00;-0.60;94550.00;;;;7398561;19;20477;-75
2023/01/28 11:34:56;;;;;;;21.70;11.97;;;-1.00;1.00;-0.40;94557.00;;;;7399303;19;20156;-75
2023/01/28 11:37:30;;;;;;;18.23;11.70;;;-0.90;1.00;-0.50;94555.00;;;;7399791;19;20117;-77
2023/01/28 11:40:19;;;;;;;18.20;11.90;;;-1.00;1.00;-0.70;94551.00;;;;7398919;19;20125;-75
2023/01/28 11:42:58;;;;;;;17.00;10.77;;;-1.00;1.00;-0.50;94561.00;;;;7394651;19;20133;-77
2023/01/28 11:45:49;;;;;;;15.10;10.03;;;-1.00;1.00;-0.40;94554.00;;;;7397783;19;20145;-76
2023/01/28 11:48:51;;;;;;;18.47;11.77;;;-0.90;1.00;-0.20;94553.00;;;;7394354;19;20525;-76
2023/01/28 11:51:42;;;;;;;16.20;10.03;;;-0.80;1.00;-0.50;94557.00;;;;7399424;19;20476;-74
2023/01/28 11:54:46;;;;;;;16.30;10.17;;;-0.80;1.00;-0.40;94550.00;;;;7402952;19;20157;-75
2023/01/28 11:57:34;;;;;;;14.27;9.97;;;-0.80;99.90;-0.40;94527.00;;;;7405765;19;20159;-75